createdAt,value
2023-02-06T00:00:24.076Z,8.05
2023-02-06T00:02:50.649Z,8.50
2023-02-06T00:05:16.985Z,8.05
2023-02-06T00:07:43.300Z,9.32
2023-02-06T00:10:09.782Z,10.95
2023-02-06T00:12:36.143Z,12.70
2023-02-06T00:15:02.499Z,11.18
2023-02-06T00:17:28.805Z,11.40
2023-02-06T00:19:55.170Z,11.00
2023-02-06T00:22:21.475Z,11.63
2023-02-06T00:24:47.832Z,13.65
2023-02-06T00:27:14.102Z,13.55
2023-02-06T00:29:40.462Z,13.45
2023-02-06T00:32:06.803Z,12.10
2023-02-06T00:34:33.119Z,13.60
2023-02-06T00:36:59.459Z,13.20
2023-02-06T00:39:26.125Z,13.45
2023-02-06T00:41:52.437Z,13.18
2023-02-06T00:44:18.816Z,11.88
2023-02-06T00:46:45.114Z,12.02
2023-02-06T00:49:11.506Z,11.13
2023-02-06T00:51:39.413Z,12.50
2023-02-06T00:54:06.189Z,11.48
2023-02-06T00:56:32.465Z,11.20
2023-02-06T00:58:58.976Z,11.85
2023-02-06T01:01:26.304Z,10.93
2023-02-06T01:03:53.104Z,10.90
2023-02-06T01:06:19.486Z,12.30
2023-02-06T01:08:46.304Z,12.32
2023-02-06T01:11:14.133Z,13.40
2023-02-06T01:13:40.852Z,13.40
2023-02-06T01:16:08.716Z,14.73
2023-02-06T01:18:35.122Z,14.32
2023-02-06T01:21:02.417Z,14.18
2023-02-06T01:23:29.325Z,13.15
2023-02-06T01:25:55.596Z,14.95
2023-02-06T01:28:22.030Z,14.70
2023-02-06T01:30:48.461Z,14.35
2023-02-06T01:33:14.831Z,14.13
2023-02-06T01:35:43.462Z,14.75
2023-02-06T01:38:09.813Z,13.20
2023-02-06T01:40:37.303Z,13.82
2023-02-06T01:43:03.584Z,13.73
2023-02-06T01:45:35.983Z,14.02
2023-02-06T01:48:04.914Z,13.45
2023-02-06T01:50:32.832Z,13.35
2023-02-06T01:52:59.262Z,14.02
2023-02-06T01:55:25.859Z,14.00
2023-02-06T01:57:52.298Z,12.73
2023-02-06T02:00:20.178Z,13.40
2023-02-06T02:02:48.339Z,13.98
2023-02-06T02:05:16.248Z,12.10
2023-02-06T02:07:46.833Z,11.80
2023-02-06T02:10:13.098Z,12.38
2023-02-06T02:12:39.437Z,11.73
2023-02-06T02:15:05.949Z,11.90
2023-02-06T02:17:44.425Z,11.68
2023-02-06T02:20:20.043Z,11.18
2023-02-06T02:22:51.894Z,12.02
2023-02-06T02:25:30.394Z,11.68
2023-02-06T02:27:56.692Z,12.65
2023-02-06T02:30:26.062Z,12.40
2023-02-06T02:32:58.621Z,11.95
2023-02-06T02:35:28.777Z,12.68
2023-02-06T02:37:59.639Z,13.38
2023-02-06T02:40:44.827Z,14.15
2023-02-06T02:43:37.123Z,13.50
2023-02-06T02:46:03.475Z,15.43
2023-02-06T02:48:32.349Z,15.93
2023-02-06T02:50:59.730Z,15.68
2023-02-06T02:53:26.838Z,16.08
2023-02-06T02:55:54.018Z,15.73
2023-02-06T02:58:24.752Z,16.08
2023-02-06T03:00:55.346Z,16.23
2023-02-06T03:03:23.313Z,17.05
2023-02-06T03:05:54.806Z,18.08
2023-02-06T03:08:27.001Z,16.45
2023-02-06T03:10:56.855Z,17.23
2023-02-06T03:13:28.513Z,17.52
2023-02-06T03:16:00.836Z,17.15
2023-02-06T03:18:59.824Z,17.23
2023-02-06T03:21:27.591Z,17.63
2023-02-06T03:23:55.802Z,18.55
2023-02-06T03:26:23.691Z,18.60
2023-02-06T03:28:52.935Z,19.48
2023-02-06T03:31:23.299Z,18.45
2023-02-06T03:33:52.051Z,19.52
2023-02-06T03:36:19.957Z,20.55
2023-02-06T03:38:48.217Z,18.92
2023-02-06T03:41:15.702Z,20.17
2023-02-06T03:43:43.272Z,18.92
2023-02-06T03:46:12.448Z,19.58
2023-02-06T03:48:41.527Z,20.65
2023-02-06T03:51:19.043Z,19.60
2023-02-06T03:53:47.176Z,19.73
2023-02-06T03:56:19.151Z,21.27
2023-02-06T03:58:45.422Z,19.88
2023-02-06T04:01:12.087Z,20.60
2023-02-06T04:03:38.380Z,21.52
2023-02-06T04:06:04.733Z,20.98
2023-02-06T04:08:31.145Z,21.67
2023-02-06T04:10:57.498Z,22.30
2023-02-06T04:13:23.799Z,19.80
2023-02-06T04:15:50.127Z,19.38
2023-02-06T04:18:16.438Z,19.52
2023-02-06T04:20:42.766Z,20.33
2023-02-06T04:23:09.134Z,20.85
2023-02-06T04:25:35.830Z,18.08
2023-02-06T04:28:02.471Z,17.48
2023-02-06T04:30:28.925Z,17.52
2023-02-06T04:32:55.280Z,16.55
2023-02-06T04:35:21.659Z,16.75
2023-02-06T04:37:47.972Z,16.27
2023-02-06T04:40:14.291Z,16.90
2023-02-06T04:42:40.749Z,18.35
2023-02-06T04:45:07.340Z,18.27
2023-02-06T04:47:33.646Z,18.63
2023-02-06T04:49:59.916Z,17.50
2023-02-06T04:52:26.253Z,18.33
2023-02-06T04:54:52.608Z,18.02
2023-02-06T04:57:18.976Z,16.70
2023-02-06T04:59:45.344Z,17.25
2023-02-06T05:02:11.610Z,17.92
2023-02-06T05:04:39.054Z,17.60
2023-02-06T05:07:05.639Z,17.00
2023-02-06T05:09:32.000Z,16.83
2023-02-06T05:11:58.255Z,17.83
2023-02-06T05:14:24.634Z,17.80
2023-02-06T05:16:50.968Z,17.42
2023-02-06T05:19:17.319Z,17.40
2023-02-06T05:21:43.583Z,17.13
2023-02-06T05:24:09.856Z,17.60
2023-02-06T05:26:36.294Z,18.45
2023-02-06T05:29:02.673Z,18.63
2023-02-06T05:31:29.080Z,19.25
2023-02-06T05:33:55.522Z,18.77
2023-02-06T05:36:22.374Z,17.92
2023-02-06T05:38:48.861Z,18.20
2023-02-06T05:41:15.835Z,18.17
2023-02-06T05:43:42.206Z,18.60
2023-02-06T05:46:08.616Z,18.63
2023-02-06T05:48:35.181Z,18.30
2023-02-06T05:51:01.892Z,19.52
2023-02-06T05:53:28.295Z,17.95
2023-02-06T05:55:54.878Z,17.77
2023-02-06T05:58:21.237Z,17.95
2023-02-06T06:00:47.726Z,19.40
2023-02-06T06:03:14.025Z,19.40
2023-02-06T06:05:40.637Z,20.33
2023-02-06T06:08:06.943Z,18.88
2023-02-06T06:10:33.299Z,18.77
2023-02-06T06:12:59.766Z,19.55
2023-02-06T06:15:26.142Z,18.80
2023-02-06T06:17:52.511Z,19.60
2023-02-06T06:20:18.831Z,19.23
2023-02-06T06:22:45.096Z,18.42
2023-02-06T06:25:11.441Z,18.55
2023-02-06T06:27:37.708Z,19.58
2023-02-06T06:30:04.157Z,17.40
2023-02-06T06:32:30.480Z,16.98
2023-02-06T06:34:56.806Z,16.17
2023-02-06T06:37:23.152Z,16.13
2023-02-06T06:39:49.479Z,14.82
2023-02-06T06:42:15.845Z,15.57
2023-02-06T06:44:42.113Z,15.77
2023-02-06T06:47:08.401Z,14.77
2023-02-06T06:49:34.699Z,16.17
2023-02-06T06:52:01.020Z,16.48
2023-02-06T06:54:27.325Z,14.07
2023-02-06T06:56:53.608Z,11.82
2023-02-06T06:59:19.898Z,9.57
2023-02-06T07:01:46.226Z,10.32
2023-02-06T07:04:12.561Z,11.32
2023-02-06T07:06:38.906Z,7.68
2023-02-06T07:09:05.254Z,8.60
2023-02-06T07:11:31.514Z,5.50
2023-02-06T07:13:57.829Z,4.78
2023-02-06T07:16:24.480Z,4.20
2023-02-06T07:18:50.839Z,3.78
2023-02-06T07:21:19.667Z,3.38
2023-02-06T07:23:46.063Z,3.47
2023-02-06T07:26:12.722Z,3.10
2023-02-06T07:28:39.427Z,3.05
2023-02-06T07:31:06.953Z,3.42
2023-02-06T07:33:33.949Z,2.83
2023-02-06T07:36:03.308Z,3.33
2023-02-06T07:38:30.064Z,2.60
2023-02-06T07:41:00.097Z,3.13
2023-02-06T07:43:26.344Z,2.92
2023-02-06T07:45:52.736Z,2.90
2023-02-06T07:48:19.015Z,2.78
2023-02-06T07:50:45.362Z,2.60
2023-02-06T07:53:11.662Z,2.95
2023-02-06T07:55:38.390Z,2.95
2023-02-06T07:58:04.950Z,2.50
2023-02-06T08:00:31.220Z,2.28
2023-02-06T08:02:57.815Z,2.78
2023-02-06T08:05:24.133Z,2.83
2023-02-06T08:07:51.358Z,3.20
2023-02-06T08:10:17.704Z,2.90
2023-02-06T08:12:44.912Z,2.95
2023-02-06T08:15:11.352Z,2.83
2023-02-06T08:17:37.744Z,3.30
2023-02-06T08:20:04.282Z,2.90
2023-02-06T08:22:30.667Z,3.00
2023-02-06T08:24:56.970Z,2.80
2023-02-06T08:27:23.227Z,2.90
2023-02-06T08:29:50.209Z,2.60
2023-02-06T08:32:16.478Z,2.50
2023-02-06T08:34:42.788Z,2.67
2023-02-06T08:37:09.104Z,2.60
2023-02-06T08:39:35.456Z,3.13
2023-02-06T08:42:01.931Z,2.55
2023-02-06T08:44:28.250Z,2.65
2023-02-06T08:47:08.883Z,2.70
2023-02-06T08:49:36.365Z,2.55
2023-02-06T08:52:02.637Z,2.80
2023-02-06T08:54:28.900Z,2.95
2023-02-06T08:56:56.764Z,3.10
2023-02-06T08:59:23.126Z,3.20
2023-02-06T09:01:49.534Z,3.53
2023-02-06T09:04:16.130Z,3.20
2023-02-06T09:06:43.428Z,3.72
2023-02-06T09:09:10.855Z,4.28
2023-02-06T09:11:37.493Z,4.40
2023-02-06T09:14:04.801Z,3.90
2023-02-06T09:16:33.361Z,4.10
2023-02-06T09:19:01.423Z,4.43
2023-02-06T09:21:32.577Z,4.30
2023-02-06T09:24:00.617Z,4.47
2023-02-06T09:26:28.214Z,4.50
2023-02-06T09:28:57.061Z,4.47
2023-02-06T09:31:24.072Z,4.07
2023-02-06T09:33:50.533Z,4.47
2023-02-06T09:36:18.127Z,4.15
2023-02-06T09:38:45.506Z,4.55
2023-02-06T09:41:27.014Z,4.30
2023-02-06T09:44:06.346Z,4.10
2023-02-06T09:46:34.319Z,4.53
2023-02-06T09:49:03.038Z,4.43
2023-02-06T09:51:40.066Z,4.25
2023-02-06T09:54:18.405Z,4.72
2023-02-06T09:57:03.493Z,4.57
2023-02-06T09:59:39.050Z,4.65
2023-02-06T10:02:05.369Z,4.10
2023-02-06T10:04:40.254Z,4.75
2023-02-06T10:07:32.676Z,4.45
2023-02-06T10:10:19.238Z,4.78
2023-02-06T10:12:47.684Z,5.82
2023-02-06T10:15:20.821Z,7.53
2023-02-06T10:17:51.310Z,7.67
2023-02-06T10:20:36.210Z,9.55
2023-02-06T10:23:13.527Z,6.60
2023-02-06T10:25:45.217Z,4.47
2023-02-06T10:28:21.513Z,10.15
2023-02-06T10:31:06.996Z,2.30
2023-02-06T10:33:41.030Z,2.70
2023-02-06T10:38:38.688Z,2.22
2023-02-06T10:41:32.649Z,6.88
2023-02-06T10:44:04.049Z,5.15
2023-02-06T10:46:39.511Z,2.80
2023-02-06T10:49:21.545Z,2.80
2023-02-06T10:51:52.612Z,2.50
2023-02-06T10:54:26.690Z,4.78
2023-02-06T10:56:54.080Z,13.27
2023-02-06T10:59:29.408Z,2.58
2023-02-06T11:02:01.157Z,2.50
2023-02-06T11:04:33.106Z,2.45
2023-02-06T11:07:01.414Z,2.40
2023-02-06T11:09:27.818Z,2.42
2023-02-06T11:11:55.968Z,2.63
2023-02-06T11:14:30.365Z,2.47
2023-02-06T11:16:58.771Z,2.55
2023-02-06T11:19:31.687Z,2.35
2023-02-06T11:22:07.206Z,2.65
2023-02-06T11:24:34.294Z,2.47
2023-02-06T11:27:02.455Z,2.33
2023-02-06T11:29:31.782Z,2.83
2023-02-06T11:31:59.669Z,2.70
2023-02-06T11:34:31.012Z,2.72
2023-02-06T11:37:07.323Z,2.65
2023-02-06T11:39:34.711Z,2.70
2023-02-06T11:42:02.987Z,2.53
2023-02-06T11:44:35.205Z,2.70
2023-02-06T11:47:20.231Z,2.20
2023-02-06T11:49:46.675Z,2.70
2023-02-06T11:52:29.892Z,2.70
2023-02-06T11:55:01.614Z,2.58
2023-02-06T11:57:29.958Z,2.67
2023-02-06T11:59:57.943Z,2.15
2023-02-06T12:02:24.279Z,2.65
2023-02-06T12:04:51.493Z,2.38
2023-02-06T12:07:29.957Z,2.35
2023-02-06T12:09:56.618Z,2.90
2023-02-06T12:12:28.524Z,2.78
2023-02-06T12:15:02.941Z,2.40
2023-02-06T12:17:39.730Z,2.20
2023-02-06T12:20:07.937Z,2.92
2023-02-06T12:22:36.524Z,2.38
2023-02-06T12:25:04.407Z,3.00
2023-02-06T12:27:35.120Z,2.58
2023-02-06T12:30:21.688Z,2.50
2023-02-06T12:32:50.547Z,2.80
2023-02-06T12:35:36.083Z,2.58
2023-02-06T12:38:11.609Z,2.55
2023-02-06T12:40:40.990Z,2.30
2023-02-06T12:43:09.834Z,2.78
2023-02-06T12:45:52.811Z,2.28
2023-02-06T12:48:21.900Z,2.47
2023-02-06T12:50:50.993Z,4.57
2023-02-06T12:53:20.066Z,4.95
2023-02-06T12:55:56.047Z,2.58
2023-02-06T12:58:24.699Z,2.63
2023-02-06T13:00:59.866Z,2.65
2023-02-06T13:03:40.569Z,2.10
2023-02-06T13:06:09.647Z,2.53
2023-02-06T13:08:35.994Z,2.45
2023-02-06T13:11:07.634Z,4.03
2023-02-06T13:13:39.077Z,3.05
2023-02-06T13:16:05.964Z,2.38
2023-02-06T13:18:41.499Z,2.30
2023-02-06T13:21:30.133Z,2.72
2023-02-06T13:24:02.596Z,3.00
2023-02-06T13:26:53.472Z,2.70
2023-02-06T13:29:28.992Z,5.32
2023-02-06T13:32:19.756Z,6.78
2023-02-06T13:34:53.656Z,4.53
2023-02-06T13:37:21.419Z,2.33
2023-02-06T13:39:48.977Z,2.60
2023-02-06T13:42:34.106Z,2.42
2023-02-06T13:45:01.646Z,1.90
2023-02-06T13:48:00.762Z,2.35
2023-02-06T13:50:29.818Z,3.60
2023-02-06T13:53:15.047Z,2.20
2023-02-06T13:55:53.546Z,5.40
2023-02-06T13:58:35.250Z,5.53
2023-02-06T14:01:02.925Z,2.70
2023-02-06T14:03:30.461Z,8.20
2023-02-06T14:05:59.913Z,4.90
2023-02-06T14:08:29.289Z,3.63
2023-02-06T14:11:01.564Z,3.97
2023-02-06T14:13:37.164Z,3.47
2023-02-06T14:16:29.279Z,3.70
2023-02-06T14:19:01.249Z,7.70
2023-02-06T14:21:39.870Z,7.10
2023-02-06T14:24:15.210Z,4.30
2023-02-06T14:27:00.972Z,3.55
2023-02-06T14:29:27.298Z,2.03
2023-02-06T14:32:13.966Z,1.90
2023-02-06T14:34:58.871Z,1.98
2023-02-06T14:37:44.033Z,1.92
2023-02-06T14:40:17.548Z,1.90
2023-02-06T14:42:44.934Z,2.40
2023-02-06T14:45:20.399Z,2.40
2023-02-06T14:47:46.881Z,2.15
2023-02-06T14:50:19.192Z,2.53
2023-02-06T14:52:47.646Z,2.60
2023-02-06T14:55:30.995Z,2.55
2023-02-06T14:57:57.380Z,2.15
2023-02-06T15:00:24.036Z,2.65
2023-02-06T15:03:02.484Z,2.35
2023-02-06T15:05:29.060Z,2.42
2023-02-06T15:07:59.812Z,2.80
2023-02-06T15:10:28.159Z,2.60
2023-02-06T15:12:54.771Z,3.38
2023-02-06T15:15:22.819Z,3.03
2023-02-06T15:18:02.735Z,3.17
2023-02-06T15:20:31.107Z,1.85
2023-02-06T15:23:11.588Z,2.30
2023-02-06T15:25:42.681Z,2.17
2023-02-06T15:28:16.615Z,1.98
2023-02-06T15:33:10.328Z,2.00
2023-02-06T15:35:38.836Z,1.73
2023-02-06T15:38:15.044Z,2.33
2023-02-06T15:40:44.153Z,2.42
2023-02-06T15:43:15.053Z,1.85
2023-02-06T15:45:42.303Z,2.10
2023-02-06T15:48:31.804Z,2.13
2023-02-06T15:51:02.939Z,2.22
2023-02-06T15:53:38.776Z,2.05
2023-02-06T15:56:25.464Z,2.97
2023-02-06T15:58:58.003Z,2.70
2023-02-06T16:01:24.839Z,2.78
2023-02-06T16:03:53.178Z,2.28
2023-02-06T16:06:19.494Z,2.53
2023-02-06T16:08:50.211Z,2.60
2023-02-06T16:11:35.109Z,2.95
2023-02-06T16:14:01.725Z,2.30
2023-02-06T16:16:29.112Z,2.17
2023-02-06T16:18:57.240Z,2.08
2023-02-06T16:21:26.825Z,2.35
2023-02-06T16:24:06.637Z,2.55
2023-02-06T16:26:41.545Z,2.60
2023-02-06T16:29:11.234Z,3.00
2023-02-06T16:31:44.334Z,2.40
2023-02-06T16:34:32.490Z,3.17
2023-02-06T16:36:58.773Z,2.90
2023-02-06T16:39:25.115Z,2.70
2023-02-06T16:41:52.143Z,3.25
2023-02-06T16:44:19.471Z,3.20
2023-02-06T16:46:49.014Z,3.00
2023-02-06T16:49:18.156Z,3.78
2023-02-06T16:51:45.758Z,2.92
2023-02-06T16:54:21.333Z,3.70
2023-02-06T16:56:47.688Z,3.45
2023-02-06T16:59:14.024Z,3.10
2023-02-06T17:01:40.410Z,3.17
2023-02-06T17:04:06.748Z,3.60
2023-02-06T17:06:33.994Z,3.60
2023-02-06T17:09:03.333Z,3.75
2023-02-06T17:11:30.579Z,4.38
2023-02-06T17:13:57.052Z,3.63
2023-02-06T17:16:24.591Z,4.32
2023-02-06T17:18:50.889Z,3.58
2023-02-06T17:21:18.150Z,3.28
2023-02-06T17:23:44.744Z,2.88
2023-02-06T17:26:15.953Z,3.33
2023-02-06T17:28:42.540Z,3.03
2023-02-06T17:31:09.073Z,3.15
2023-02-06T17:33:35.878Z,2.83
2023-02-06T17:36:02.536Z,3.35
2023-02-06T17:38:28.879Z,3.30
2023-02-06T17:40:55.261Z,3.35
2023-02-06T17:43:21.574Z,4.80
2023-02-06T17:45:48.092Z,3.80
2023-02-06T17:48:14.465Z,3.47
2023-02-06T17:50:41.132Z,3.78
2023-02-06T17:53:10.231Z,4.40
2023-02-06T17:55:36.771Z,4.38
2023-02-06T17:58:03.800Z,7.00
2023-02-06T18:00:30.141Z,7.18
2023-02-06T18:02:58.036Z,7.57
2023-02-06T18:05:24.653Z,6.97
2023-02-06T18:07:51.818Z,12.52
2023-02-06T18:10:19.033Z,7.18
2023-02-06T18:12:45.448Z,7.25
2023-02-06T18:15:13.590Z,7.22
2023-02-06T18:17:41.024Z,5.43
2023-02-06T18:20:08.018Z,4.30
2023-02-06T18:22:40.905Z,2.97
2023-02-06T18:25:08.706Z,2.85
2023-02-06T18:27:35.052Z,3.70
2023-02-06T18:30:03.505Z,4.00
2023-02-06T18:32:30.324Z,3.17
2023-02-06T18:34:57.386Z,3.13
2023-02-06T18:37:23.766Z,3.75
2023-02-06T18:39:50.128Z,4.00
2023-02-06T18:42:35.247Z,3.85
2023-02-06T18:45:03.984Z,4.82
2023-02-06T18:47:30.588Z,4.07
2023-02-06T18:49:56.883Z,4.35
2023-02-06T18:52:23.253Z,4.05
2023-02-06T18:54:49.537Z,4.05
2023-02-06T18:57:15.813Z,3.72
2023-02-06T18:59:42.197Z,4.00
2023-02-06T19:02:10.362Z,3.97
2023-02-06T19:04:36.745Z,3.53
2023-02-06T19:07:03.184Z,3.70
2023-02-06T19:09:29.611Z,3.60
2023-02-06T19:11:56.341Z,3.70
2023-02-06T19:14:25.222Z,3.50
2023-02-06T19:16:52.100Z,4.00
2023-02-06T19:19:18.666Z,3.70
2023-02-06T19:21:45.383Z,3.70
2023-02-06T19:24:12.884Z,3.90
2023-02-06T19:26:39.256Z,4.00
2023-02-06T19:29:05.916Z,5.15
2023-02-06T19:31:32.404Z,8.10
2023-02-06T19:33:59.914Z,4.18
2023-02-06T19:36:27.311Z,5.25
2023-02-06T19:38:54.752Z,4.78
2023-02-06T19:41:23.641Z,5.50
2023-02-06T19:43:51.250Z,4.82
2023-02-06T19:46:18.732Z,4.57
2023-02-06T19:48:45.874Z,5.60
2023-02-06T19:51:13.775Z,4.22
2023-02-06T19:53:45.624Z,3.83
2023-02-06T19:56:12.731Z,3.97
2023-02-06T19:58:39.244Z,5.70
2023-02-06T20:01:10.268Z,4.50
2023-02-06T20:03:37.162Z,4.50
2023-02-06T20:06:04.914Z,3.88
2023-02-06T20:08:31.577Z,4.00
2023-02-06T20:10:58.301Z,4.38
2023-02-06T20:13:24.610Z,4.35
2023-02-06T20:15:50.874Z,5.00
2023-02-06T20:18:17.416Z,5.07
2023-02-06T20:20:43.750Z,5.45
2023-02-06T20:23:10.062Z,5.55
2023-02-06T20:25:37.258Z,5.70
2023-02-06T20:28:03.815Z,5.57
2023-02-06T20:30:31.413Z,6.13
2023-02-06T20:32:57.727Z,5.38
2023-02-06T20:35:23.985Z,4.72
2023-02-06T20:37:50.297Z,5.20
2023-02-06T20:40:16.707Z,4.72
2023-02-06T20:42:44.421Z,4.40
2023-02-06T20:45:11.823Z,4.35
2023-02-06T20:47:38.379Z,3.88
2023-02-06T20:50:05.955Z,4.53
2023-02-06T20:52:32.684Z,4.32
2023-02-06T20:54:59.021Z,3.88
2023-02-06T20:57:25.932Z,4.68
2023-02-06T20:59:53.110Z,4.38
2023-02-06T21:02:19.430Z,4.50
2023-02-06T21:04:45.859Z,3.72
2023-02-06T21:07:12.243Z,3.70
2023-02-06T21:09:38.583Z,3.45
2023-02-06T21:12:04.958Z,3.85
2023-02-06T21:14:31.860Z,3.72
2023-02-06T21:16:58.196Z,3.13
2023-02-06T21:19:26.657Z,3.53
2023-02-06T21:21:53.055Z,3.58
2023-02-06T21:24:19.544Z,3.63
2023-02-06T21:26:45.890Z,3.50
2023-02-06T21:29:12.735Z,3.63
2023-02-06T21:31:39.238Z,3.60
2023-02-06T21:34:19.559Z,4.10
2023-02-06T21:36:45.911Z,3.83
2023-02-06T21:39:16.898Z,3.40
2023-02-06T21:41:43.589Z,3.33
2023-02-06T21:44:09.944Z,3.55
2023-02-06T21:46:36.318Z,3.40
2023-02-06T21:49:02.735Z,4.00
2023-02-06T21:51:29.285Z,3.40
2023-02-06T21:53:56.401Z,3.40
2023-02-06T21:56:24.543Z,3.35
2023-02-06T21:58:51.018Z,3.30
2023-02-06T22:01:19.111Z,3.45
2023-02-06T22:03:46.354Z,3.50
2023-02-06T22:06:13.540Z,2.97
2023-02-06T22:08:41.105Z,2.88
2023-02-06T22:11:21.346Z,3.15
2023-02-06T22:13:48.145Z,2.80
2023-02-06T22:16:16.171Z,2.90
2023-02-06T22:18:42.709Z,3.05
2023-02-06T22:21:10.393Z,3.03
2023-02-06T22:23:37.254Z,2.88
2023-02-06T22:26:04.155Z,2.65
2023-02-06T22:28:31.126Z,2.50
2023-02-06T22:31:04.002Z,2.60
2023-02-06T22:33:30.347Z,2.30
2023-02-06T22:35:57.720Z,2.60
2023-02-06T22:38:24.009Z,2.50
2023-02-06T22:41:03.710Z,2.47
2023-02-06T22:43:31.177Z,2.47
2023-02-06T22:45:57.506Z,2.33
2023-02-06T22:48:24.186Z,2.53
2023-02-06T22:50:51.703Z,2.40
2023-02-06T22:53:33.037Z,2.40
2023-02-06T22:56:19.214Z,2.20
2023-02-06T22:58:45.535Z,2.30
2023-02-06T23:01:12.364Z,2.20
2023-02-06T23:03:38.690Z,1.98
2023-02-06T23:06:06.933Z,2.28
2023-02-06T23:08:33.900Z,2.28
2023-02-06T23:11:00.453Z,2.30
2023-02-06T23:13:26.727Z,2.25
2023-02-06T23:15:54.647Z,1.90
2023-02-06T23:18:20.938Z,2.20
2023-02-06T23:20:52.613Z,2.10
2023-02-06T23:23:18.929Z,2.40
2023-02-06T23:25:45.817Z,2.13
2023-02-06T23:28:12.155Z,2.17
2023-02-06T23:30:38.521Z,2.50
2023-02-06T23:33:05.091Z,2.10
2023-02-06T23:35:34.605Z,2.58
2023-02-06T23:38:00.876Z,2.10
2023-02-06T23:40:27.149Z,1.92
2023-02-06T23:42:53.410Z,2.45
2023-02-06T23:45:19.727Z,2.20
2023-02-06T23:47:46.570Z,2.17
2023-02-06T23:50:13.006Z,2.00
2023-02-06T23:52:39.411Z,1.98
2023-02-06T23:55:06.051Z,2.13
2023-02-06T23:57:34.984Z,2.10
